createdAt,value
2023-04-22T00:02:16.953Z,11.30
2023-04-22T00:04:46.483Z,11.20
2023-04-22T00:07:14.692Z,11.20
2023-04-22T00:09:41.922Z,11.10
2023-04-22T00:12:09.292Z,11.10
2023-04-22T00:14:35.978Z,11.00
2023-04-22T00:17:02.842Z,11.00
2023-04-22T00:19:29.890Z,10.90
2023-04-22T00:21:56.532Z,10.90
2023-04-22T00:24:23.118Z,10.90
2023-04-22T00:26:49.777Z,10.90
2023-04-22T00:29:16.406Z,10.80
2023-04-22T00:31:43.040Z,10.80
2023-04-22T00:34:09.810Z,10.80
2023-04-22T00:36:36.484Z,10.80
2023-04-22T00:39:03.247Z,10.70
2023-04-22T00:41:31.218Z,10.70
2023-04-22T00:43:59.811Z,10.70
2023-04-22T00:46:27.168Z,10.60
2023-04-22T00:48:54.208Z,10.60
2023-04-22T00:51:20.882Z,10.60
2023-04-22T00:53:47.716Z,10.60
2023-04-22T00:56:14.474Z,10.50
2023-04-22T00:58:41.358Z,10.50
2023-04-22T01:01:08.084Z,10.40
2023-04-22T01:03:38.752Z,10.40
2023-04-22T01:06:05.675Z,10.40
2023-04-22T01:08:33.117Z,10.30
2023-04-22T01:11:00.152Z,10.30
2023-04-22T01:13:26.946Z,10.20
2023-04-22T01:15:54.768Z,10.20
2023-04-22T01:18:21.965Z,10.20
2023-04-22T01:20:48.965Z,10.10
2023-04-22T01:23:22.301Z,10.10
2023-04-22T01:25:49.487Z,10.10
2023-04-22T01:28:17.020Z,10.10
2023-04-22T01:30:44.528Z,10.10
2023-04-22T01:33:11.997Z,10.00
2023-04-22T01:35:38.985Z,9.90
2023-04-22T01:38:10.041Z,9.90
2023-04-22T01:40:38.245Z,9.90
2023-04-22T01:43:05.255Z,9.90
2023-04-22T01:45:31.953Z,9.80
2023-04-22T01:47:58.657Z,9.80
2023-04-22T01:50:25.436Z,9.80
2023-04-22T01:52:52.247Z,9.70
2023-04-22T01:55:18.905Z,9.70
2023-04-22T01:57:45.639Z,9.70
2023-04-22T02:00:12.703Z,9.70
2023-04-22T02:02:39.569Z,9.60
2023-04-22T02:05:10.157Z,9.60
2023-04-22T02:07:38.132Z,9.60
2023-04-22T02:10:06.060Z,9.60
2023-04-22T02:12:32.716Z,9.60
2023-04-22T02:14:59.400Z,9.60
2023-04-22T02:17:26.411Z,9.60
2023-04-22T02:19:53.293Z,9.60
2023-04-22T02:22:20.093Z,9.50
2023-04-22T02:24:46.901Z,9.50
2023-04-22T02:27:13.534Z,9.50
2023-04-22T02:29:40.457Z,9.50
2023-04-22T02:32:07.544Z,9.50
2023-04-22T02:34:34.170Z,9.50
2023-04-22T02:37:00.990Z,9.50
2023-04-22T02:39:27.695Z,9.50
2023-04-22T02:41:54.636Z,9.50
2023-04-22T02:44:21.219Z,9.50
2023-04-22T02:46:47.925Z,9.50
2023-04-22T02:49:14.600Z,9.50
2023-04-22T02:51:41.235Z,9.50
2023-04-22T02:54:07.894Z,9.50
2023-04-22T02:56:34.562Z,9.50
2023-04-22T02:59:01.184Z,9.50
2023-04-22T03:01:27.903Z,9.50
2023-04-22T03:03:54.850Z,9.50
2023-04-22T03:06:21.740Z,9.50
2023-04-22T03:08:48.316Z,9.50
2023-04-22T03:11:14.964Z,9.50
2023-04-22T03:13:41.664Z,9.40
2023-04-22T03:16:09.325Z,9.40
2023-04-22T03:18:36.026Z,9.40
2023-04-22T03:21:02.889Z,9.40
2023-04-22T03:23:29.587Z,9.40
2023-04-22T03:25:56.210Z,9.40
2023-04-22T03:28:22.848Z,9.40
2023-04-22T03:30:49.518Z,9.40
2023-04-22T03:33:16.731Z,9.40
2023-04-22T03:35:43.424Z,9.40
2023-04-22T03:38:10.310Z,9.40
2023-04-22T03:40:36.964Z,9.40
2023-04-22T03:43:03.709Z,9.40
2023-04-22T03:45:30.461Z,9.40
2023-04-22T03:47:57.181Z,9.40
2023-04-22T03:50:23.943Z,9.40
2023-04-22T03:52:50.958Z,9.40
2023-04-22T03:55:17.736Z,9.40
2023-04-22T03:57:44.400Z,9.40
2023-04-22T04:00:11.473Z,9.40
2023-04-22T04:02:38.199Z,9.40
2023-04-22T04:05:05.564Z,9.40
2023-04-22T04:07:32.299Z,9.40
2023-04-22T04:09:58.906Z,9.40
2023-04-22T04:12:25.671Z,9.40
2023-04-22T04:14:52.331Z,9.40
2023-04-22T04:17:19.041Z,9.40
2023-04-22T04:19:45.796Z,9.50
2023-04-22T04:22:12.433Z,9.40
2023-04-22T04:24:42.083Z,9.40
2023-04-22T04:27:09.073Z,9.40
2023-04-22T04:29:36.893Z,9.40
2023-04-22T04:32:04.925Z,9.40
2023-04-22T04:34:34.669Z,9.40
2023-04-22T04:37:01.408Z,9.40
2023-04-22T04:39:29.210Z,9.50
2023-04-22T04:41:58.583Z,9.50
2023-04-22T04:44:28.118Z,9.40
2023-04-22T04:46:54.954Z,9.40
2023-04-22T04:49:21.972Z,9.40
2023-04-22T04:51:49.098Z,9.40
2023-04-22T04:54:16.161Z,9.50
2023-04-22T04:56:43.179Z,9.50
2023-04-22T04:59:09.896Z,9.50
2023-04-22T05:01:36.574Z,9.50
2023-04-22T05:04:03.544Z,9.50
2023-04-22T05:06:31.435Z,9.50
2023-04-22T05:08:58.336Z,9.50
2023-04-22T05:11:25.186Z,9.50
2023-04-22T05:13:51.817Z,9.50
2023-04-22T05:16:18.461Z,9.60
2023-04-22T05:18:45.362Z,9.60
2023-04-22T05:21:11.968Z,9.60
2023-04-22T05:23:39.472Z,9.60
2023-04-22T05:26:06.186Z,9.60
2023-04-22T05:28:32.901Z,9.60
2023-04-22T05:30:59.560Z,9.60
2023-04-22T05:33:26.214Z,9.60
2023-04-22T05:35:53.616Z,9.60
2023-04-22T05:38:20.421Z,9.60
2023-04-22T05:40:47.157Z,9.60
2023-04-22T05:43:14.067Z,9.70
2023-04-22T05:45:40.858Z,9.70
2023-04-22T05:48:07.767Z,9.70
2023-04-22T05:50:34.593Z,9.70
2023-04-22T05:53:01.193Z,9.70
2023-04-22T05:55:27.941Z,9.80
2023-04-22T05:57:54.634Z,9.80
2023-04-22T06:00:21.303Z,9.80
2023-04-22T06:02:48.066Z,9.80
2023-04-22T06:05:14.968Z,9.90
2023-04-22T06:07:41.692Z,9.90
2023-04-22T06:10:09.143Z,9.90
2023-04-22T06:12:36.169Z,10.00
2023-04-22T06:15:03.149Z,9.90
2023-04-22T06:17:29.802Z,10.00
2023-04-22T06:19:56.529Z,10.00
2023-04-22T06:22:23.259Z,10.10
2023-04-22T06:24:49.976Z,10.10
2023-04-22T06:27:16.596Z,10.10
2023-04-22T06:29:43.337Z,10.20
2023-04-22T06:32:09.924Z,10.20
2023-04-22T06:34:38.590Z,10.20
2023-04-22T06:37:06.197Z,10.20
2023-04-22T06:39:32.847Z,10.30
2023-04-22T06:41:59.605Z,10.30
2023-04-22T06:44:26.376Z,10.40
2023-04-22T06:46:53.777Z,10.40
2023-04-22T06:49:21.859Z,10.50
2023-04-22T06:51:48.562Z,10.50
2023-04-22T06:54:15.186Z,10.60
2023-04-22T06:56:42.007Z,10.60
2023-04-22T06:59:08.795Z,10.70
2023-04-22T07:01:35.487Z,10.70
2023-04-22T07:04:02.231Z,10.80
2023-04-22T07:06:29.139Z,10.90
2023-04-22T07:08:55.901Z,10.90
2023-04-22T07:11:22.541Z,11.00
2023-04-22T07:13:49.176Z,11.10
2023-04-22T07:16:15.869Z,11.10
2023-04-22T07:18:42.498Z,11.20
2023-04-22T07:21:09.134Z,11.30
2023-04-22T07:23:35.890Z,11.40
2023-04-22T07:26:02.862Z,11.60
2023-04-22T07:28:29.683Z,11.70
2023-04-22T07:30:56.376Z,11.80
2023-04-22T07:33:23.177Z,11.90
2023-04-22T07:35:49.946Z,12.00
2023-04-22T07:38:16.746Z,12.20
2023-04-22T07:40:43.814Z,12.20
2023-04-22T07:43:10.533Z,12.40
2023-04-22T07:45:37.313Z,12.50
2023-04-22T07:48:04.848Z,12.60
2023-04-22T07:50:31.648Z,12.80
2023-04-22T07:52:58.417Z,12.90
2023-04-22T07:55:25.057Z,13.00
2023-04-22T07:57:51.764Z,13.20
2023-04-22T08:00:18.518Z,13.20
2023-04-22T08:02:46.825Z,13.40
2023-04-22T08:05:13.634Z,13.50
2023-04-22T08:07:40.457Z,13.60
2023-04-22T08:10:07.723Z,13.70
2023-04-22T08:12:35.083Z,13.80
2023-04-22T08:15:01.797Z,13.90
2023-04-22T08:17:28.560Z,14.00
2023-04-22T08:19:55.339Z,14.10
2023-04-22T08:22:23.811Z,14.20
2023-04-22T08:24:50.785Z,14.20
2023-04-22T08:27:19.204Z,14.40
2023-04-22T08:29:45.879Z,14.50
2023-04-22T08:32:12.574Z,14.60
2023-04-22T08:34:39.460Z,14.70
2023-04-22T08:37:06.143Z,14.90
2023-04-22T08:39:32.862Z,15.00
2023-04-22T08:41:59.713Z,15.20
2023-04-22T08:44:27.293Z,15.30
2023-04-22T08:46:55.858Z,15.50
2023-04-22T08:49:24.425Z,15.60
2023-04-22T08:51:51.209Z,15.80
2023-04-22T08:54:18.197Z,16.00
2023-04-22T08:56:45.800Z,16.20
2023-04-22T08:59:13.471Z,16.40
2023-04-22T09:01:41.195Z,16.60
2023-04-22T09:04:10.590Z,16.80
2023-04-22T09:06:38.806Z,17.00
2023-04-22T09:09:05.665Z,17.10
2023-04-22T09:11:33.645Z,17.20
2023-04-22T09:14:00.310Z,17.40
2023-04-22T09:16:26.981Z,17.50
2023-04-22T09:18:53.672Z,17.70
2023-04-22T09:21:20.348Z,17.70
2023-04-22T09:23:53.717Z,17.80
2023-04-22T09:26:23.419Z,17.90
2023-04-22T09:28:51.065Z,18.00
2023-04-22T09:31:18.321Z,18.00
2023-04-22T09:33:53.778Z,18.10
2023-04-22T09:36:27.602Z,18.10
2023-04-22T09:38:56.281Z,18.20
2023-04-22T09:41:35.376Z,18.30
2023-04-22T09:44:03.959Z,18.40
2023-04-22T09:46:31.781Z,18.50
2023-04-22T09:48:59.738Z,18.60
2023-04-22T09:51:30.328Z,18.70
2023-04-22T09:53:59.229Z,18.90
2023-04-22T09:56:50.809Z,19.10
2023-04-22T09:59:23.007Z,19.20
2023-04-22T10:01:53.212Z,19.40
2023-04-22T10:04:25.364Z,19.50
2023-04-22T10:06:53.114Z,19.60
2023-04-22T10:09:21.719Z,19.70
2023-04-22T10:11:50.831Z,19.70
2023-04-22T10:14:17.590Z,19.90
2023-04-22T10:16:46.990Z,20.00
2023-04-22T10:19:24.020Z,20.10
2023-04-22T10:21:55.651Z,20.10
2023-04-22T10:24:25.034Z,20.20
2023-04-22T10:26:59.701Z,20.40
2023-04-22T10:29:27.742Z,20.40
2023-04-22T10:32:07.939Z,20.50
2023-04-22T10:34:38.890Z,20.50
2023-04-22T10:37:09.040Z,20.60
2023-04-22T10:39:35.755Z,20.50
2023-04-22T10:42:10.945Z,20.50
2023-04-22T10:44:53.855Z,20.40
2023-04-22T10:47:29.868Z,20.40
2023-04-22T10:50:24.639Z,20.30
2023-04-22T10:53:18.616Z,20.30
2023-04-22T10:55:52.988Z,20.20
2023-04-22T10:58:20.675Z,20.10
2023-04-22T11:00:54.268Z,20.10
2023-04-22T11:03:29.617Z,20.00
2023-04-22T11:06:22.089Z,19.90
2023-04-22T11:08:50.233Z,19.80
2023-04-22T11:11:18.611Z,19.70
2023-04-22T11:13:47.396Z,19.70
2023-04-22T11:16:14.257Z,19.50
2023-04-22T11:18:41.103Z,19.40
2023-04-22T11:21:08.743Z,19.40
2023-04-22T11:23:36.633Z,19.20
2023-04-22T11:26:05.726Z,19.10
2023-04-22T11:28:33.016Z,19.00
2023-04-22T11:31:09.891Z,18.90
2023-04-22T11:33:39.105Z,18.80
2023-04-22T11:36:10.725Z,18.70
2023-04-22T11:38:37.516Z,18.60
2023-04-22T11:41:05.084Z,18.50
2023-04-22T11:43:31.716Z,18.40
2023-04-22T11:45:58.571Z,18.20
2023-04-22T11:48:25.250Z,18.20
2023-04-22T11:51:11.673Z,18.10
2023-04-22T11:53:40.121Z,18.00
2023-04-22T11:56:06.910Z,17.90
2023-04-22T11:58:33.562Z,17.80
2023-04-22T12:01:00.699Z,17.70
2023-04-22T12:03:31.139Z,17.70
2023-04-22T12:06:03.130Z,17.60
2023-04-22T12:08:34.108Z,17.40
2023-04-22T12:11:04.323Z,17.40
2023-04-22T12:13:38.282Z,17.30
2023-04-22T12:16:14.192Z,17.20
2023-04-22T12:19:03.457Z,17.20
2023-04-22T12:21:32.197Z,17.10
2023-04-22T12:24:01.059Z,17.10
2023-04-22T12:26:28.233Z,17.10
2023-04-22T12:28:57.752Z,17.00
2023-04-22T12:31:24.879Z,17.00
2023-04-22T12:33:52.220Z,16.90
2023-04-22T12:36:23.530Z,16.90
2023-04-22T12:38:51.194Z,16.90
2023-04-22T12:41:17.970Z,16.80
2023-04-22T12:43:44.829Z,16.80
2023-04-22T12:46:11.555Z,16.80
2023-04-22T12:48:38.422Z,16.70
2023-04-22T12:51:06.578Z,16.70
2023-04-22T12:53:33.483Z,16.70
2023-04-22T12:56:00.255Z,16.70
2023-04-22T12:58:26.989Z,16.70
2023-04-22T13:00:53.686Z,16.70
2023-04-22T13:03:20.779Z,16.70
2023-04-22T13:05:47.857Z,16.70
2023-04-22T13:08:14.802Z,16.70
2023-04-22T13:10:41.563Z,16.70
2023-04-22T13:15:39.012Z,16.70
2023-04-22T13:18:06.122Z,16.70
2023-04-22T13:20:32.989Z,16.70
2023-04-22T13:22:59.694Z,16.60
2023-04-22T13:25:26.437Z,16.60
2023-04-22T13:27:53.125Z,16.60
2023-04-22T13:30:20.087Z,16.60
2023-04-22T13:32:46.993Z,16.60
2023-04-22T13:35:13.758Z,16.60
2023-04-22T13:37:40.498Z,16.60
2023-04-22T13:40:08.286Z,16.50
2023-04-22T13:42:35.270Z,16.50
2023-04-22T13:45:01.915Z,16.50
2023-04-22T13:47:28.621Z,16.50
2023-04-22T13:49:55.397Z,16.40
2023-04-22T13:52:22.130Z,16.40
2023-04-22T13:54:48.843Z,16.40
2023-04-22T13:57:15.545Z,16.30
2023-04-22T13:59:42.471Z,16.30
2023-04-22T14:02:09.518Z,16.30
2023-04-22T14:04:36.418Z,16.30
2023-04-22T14:07:03.903Z,16.20
2023-04-22T14:09:30.703Z,16.20
2023-04-22T14:11:57.467Z,16.20
2023-04-22T14:14:24.217Z,16.20
2023-04-22T14:16:51.793Z,16.20
2023-04-22T14:19:18.694Z,16.20
2023-04-22T14:21:45.683Z,16.10
2023-04-22T14:24:12.501Z,16.10
2023-04-22T14:26:39.268Z,16.10
2023-04-22T14:29:06.009Z,16.10
2023-04-22T14:31:32.657Z,16.10
2023-04-22T14:33:59.322Z,16.00
2023-04-22T14:36:26.800Z,16.00
2023-04-22T14:38:53.480Z,16.00
2023-04-22T14:41:21.329Z,15.90
2023-04-22T14:43:48.031Z,15.90
2023-04-22T14:46:14.762Z,15.90
2023-04-22T14:48:41.550Z,15.90
2023-04-22T14:51:08.259Z,15.90
2023-04-22T14:53:34.950Z,15.80
2023-04-22T14:56:01.607Z,15.80
2023-04-22T14:58:31.432Z,15.80
2023-04-22T15:01:01.373Z,15.70
2023-04-22T15:03:28.199Z,15.70
2023-04-22T15:05:55.617Z,15.70
2023-04-22T15:08:25.087Z,15.70
2023-04-22T15:10:51.747Z,15.60
2023-04-22T15:13:19.516Z,15.60
2023-04-22T15:15:46.733Z,15.60
2023-04-22T15:18:13.516Z,15.50
2023-04-22T15:20:40.488Z,15.50
2023-04-22T15:23:07.098Z,15.50
2023-04-22T15:25:33.821Z,15.40
2023-04-22T15:28:00.592Z,15.40
2023-04-22T15:30:27.320Z,15.40
2023-04-22T15:32:54.042Z,15.40
2023-04-22T15:35:24.517Z,15.30
2023-04-22T15:37:52.534Z,15.30
2023-04-22T15:40:19.286Z,15.20
2023-04-22T15:42:45.929Z,15.20
2023-04-22T15:45:12.597Z,15.20
2023-04-22T15:47:41.140Z,15.10
2023-04-22T15:50:09.661Z,15.10
2023-04-22T15:52:38.011Z,15.10
2023-04-22T15:55:07.451Z,15.10
2023-04-22T15:57:35.243Z,15.00
2023-04-22T16:00:12.025Z,15.00
2023-04-22T16:02:40.595Z,14.90
2023-04-22T16:05:08.252Z,14.90
2023-04-22T16:07:35.226Z,14.90
2023-04-22T16:10:02.300Z,14.90
2023-04-22T16:12:29.597Z,14.90
2023-04-22T16:14:56.808Z,14.90
2023-04-22T16:17:23.698Z,14.80
2023-04-22T16:19:50.494Z,14.80
2023-04-22T16:22:17.089Z,14.80
2023-04-22T16:24:44.437Z,14.80
2023-04-22T16:27:16.133Z,14.80
2023-04-22T16:29:43.359Z,14.80
2023-04-22T16:32:10.440Z,14.80
2023-04-22T16:34:38.060Z,14.80
2023-04-22T16:37:04.862Z,14.80
2023-04-22T16:39:31.558Z,14.80
2023-04-22T16:41:59.110Z,14.80
2023-04-22T16:44:25.982Z,14.90
2023-04-22T16:46:52.730Z,14.80
2023-04-22T16:49:19.643Z,14.90
2023-04-22T16:51:46.470Z,14.90
2023-04-22T16:54:13.210Z,14.90
2023-04-22T16:56:39.968Z,15.00
2023-04-22T16:59:06.653Z,15.00
2023-04-22T17:01:33.518Z,15.00
2023-04-22T17:04:00.905Z,15.00
2023-04-22T17:06:28.310Z,15.10
2023-04-22T17:08:55.068Z,15.10
2023-04-22T17:11:22.908Z,15.10
2023-04-22T17:13:49.691Z,15.10
2023-04-22T17:16:16.371Z,15.10
2023-04-22T17:18:43.236Z,15.10
2023-04-22T17:21:10.121Z,15.10
2023-04-22T17:23:36.826Z,15.10
2023-04-22T17:26:03.431Z,15.20
2023-04-22T17:28:30.251Z,15.20
2023-04-22T17:30:56.999Z,15.20
2023-04-22T17:33:23.648Z,15.20
2023-04-22T17:35:50.391Z,15.10
2023-04-22T17:38:17.079Z,15.20
2023-04-22T17:40:44.753Z,15.20
2023-04-22T17:43:11.444Z,15.10
2023-04-22T17:45:38.072Z,15.10
2023-04-22T17:48:04.727Z,15.10
2023-04-22T17:50:31.412Z,15.10
2023-04-22T17:52:58.151Z,15.10
2023-04-22T17:55:25.115Z,15.10
2023-04-22T17:57:51.987Z,15.10
2023-04-22T18:00:18.880Z,15.00
2023-04-22T18:02:46.142Z,15.00
2023-04-22T18:05:13.012Z,14.90
2023-04-22T20:03:20.130Z,13.20
2023-04-22T20:05:49.035Z,12.70
2023-04-22T20:08:19.428Z,12.50
2023-04-22T20:10:49.168Z,12.40
2023-04-22T20:13:16.487Z,12.40
2023-04-22T20:15:43.347Z,12.30
2023-04-22T20:18:10.653Z,12.30
2023-04-22T20:20:38.628Z,12.20
2023-04-22T20:23:10.286Z,12.20
2023-04-22T20:25:39.732Z,12.10
2023-04-22T20:28:07.275Z,12.10
2023-04-22T20:30:34.486Z,12.00
2023-04-22T20:33:01.360Z,12.00
2023-04-22T20:35:28.519Z,11.90
2023-04-22T20:37:59.298Z,11.90
2023-04-22T20:40:27.147Z,11.80
2023-04-22T20:42:57.136Z,11.80
2023-04-22T20:45:24.719Z,11.80
2023-04-22T20:47:52.010Z,11.70
2023-04-22T20:50:19.010Z,11.70
2023-04-22T20:52:45.673Z,11.60
2023-04-22T20:55:12.560Z,11.60
2023-04-22T20:57:39.387Z,11.60
2023-04-22T21:00:07.314Z,11.60
2023-04-22T21:02:35.293Z,11.50
2023-04-22T21:05:03.864Z,11.50
2023-04-22T21:07:30.934Z,11.40
2023-04-22T21:09:58.383Z,11.40
2023-04-22T21:12:25.743Z,11.40
2023-04-22T21:14:52.776Z,11.30
2023-04-22T21:17:22.765Z,11.30
2023-04-22T21:19:50.742Z,11.20
2023-04-22T21:22:21.105Z,11.20
2023-04-22T21:24:52.090Z,11.20
2023-04-22T21:27:22.082Z,11.20
2023-04-22T21:29:49.647Z,11.20
2023-04-22T21:32:17.439Z,11.10
2023-04-22T21:34:44.907Z,11.10
2023-04-22T21:37:12.641Z,11.10
2023-04-22T21:39:40.393Z,11.10
2023-04-22T21:42:09.834Z,11.00
2023-04-22T21:44:37.766Z,11.00
2023-04-22T21:47:05.486Z,11.00
2023-04-22T21:49:32.214Z,10.90
2023-04-22T21:51:59.113Z,10.90
2023-04-22T21:54:25.807Z,10.90
2023-04-22T21:56:52.547Z,10.90
2023-04-22T21:59:19.283Z,10.80
2023-04-22T22:01:45.978Z,10.80
2023-04-22T22:04:15.382Z,10.80
2023-04-22T22:06:43.361Z,10.80
2023-04-22T22:09:11.569Z,10.70
2023-04-22T22:11:38.374Z,10.70
2023-04-22T22:14:05.148Z,10.70
2023-04-22T22:16:31.956Z,10.70
2023-04-22T22:18:58.735Z,10.70
2023-04-22T22:21:25.385Z,10.70
2023-04-22T22:23:52.207Z,10.70
2023-04-22T22:26:19.260Z,10.70
2023-04-22T22:28:45.934Z,10.60
2023-04-22T22:31:12.662Z,10.60
2023-04-22T22:33:39.338Z,10.60
2023-04-22T22:36:06.408Z,10.60
2023-04-22T22:38:33.124Z,10.60
2023-04-22T22:40:59.806Z,10.60
2023-04-22T22:43:26.855Z,10.60
2023-04-22T22:45:53.591Z,10.60
2023-04-22T22:48:20.388Z,10.60
2023-04-22T22:50:47.134Z,10.60
2023-04-22T22:53:13.938Z,10.60
2023-04-22T22:55:40.707Z,10.60
2023-04-22T22:58:07.353Z,10.60
2023-04-22T23:00:34.019Z,10.60
2023-04-22T23:03:00.891Z,10.50
2023-04-22T23:05:27.910Z,10.50
2023-04-22T23:07:54.501Z,10.50
2023-04-22T23:10:21.300Z,10.50
2023-04-22T23:12:48.021Z,10.50
2023-04-22T23:15:14.612Z,10.50
2023-04-22T23:17:41.505Z,10.50
2023-04-22T23:20:11.969Z,10.50
2023-04-22T23:22:42.565Z,10.50
2023-04-22T23:25:10.158Z,10.40
2023-04-22T23:27:37.155Z,10.50
2023-04-22T23:30:04.729Z,10.50
2023-04-22T23:32:33.032Z,10.40
2023-04-22T23:35:01.718Z,10.40
2023-04-22T23:37:29.486Z,10.40
2023-04-22T23:39:56.304Z,10.40
2023-04-22T23:42:23.059Z,10.40
2023-04-22T23:44:49.841Z,10.40
2023-04-22T23:47:16.948Z,10.40
2023-04-22T23:49:43.859Z,10.40
2023-04-22T23:52:12.684Z,10.40
2023-04-22T23:54:40.265Z,10.30
2023-04-22T23:57:07.455Z,10.30
2023-04-22T23:59:34.335Z,10.30
